Blanchard Township, Maine
Current Conditions -  °F | °C
As of 9:53 AM on Wednesday 22 Oct 2014 (Local Time) from KMLT Reporting Station
Few Clouds Few Clouds  
Wind Chill:   Ceiling: Unl
Heat Index:   Visibility: 10mi
Dew Point:   Wind: 13mph
Humidity: 66%   Direction: 40°NE
Pressure: 30.3"   Gusts: 22mph
Location:  45.3122°N, 69.5439°W
Report Text: KMLT 221353Z AUTO 04011G19KT 010V070 10SM FEW120 08/02 A3030 RMK AO2 SLP269 T00830022
Loading
Personal Weather Stations






























Interactive Weather Map
Tropical Storm Tracking
New forecast layout! Learn more

10-Day Weather Forecast

Advertisements
Track Severe Weather on mobile